CKS261 RKSI-RJGG
Flight info
| Callsign | CKS261 |
|---|---|
| Flight time | 1h 20m |
| Altitude | 39000 |
| Route | EGOBA2E EGOBA Y697 LANAT Y51 SAMON Y511 CHESS |
| Aircraft | B77L/H-SDE1E2E3FGHIJ2J3J4J5M1RWXY/LB1D1 |
Departure
| Time | 2026-05-04 06:18 |
|---|---|
| Airport | Incheon International Airport (RKSI) |
Arrival
| Time | 2026-05-04 07:38 |
|---|---|
| Airport | Chubu Centrair International Airport (RJGG) |
| Time | Latitude | Longitude | Altitude | Speed | Heading |
|---|---|---|---|---|---|
| 2026-05-04 05:59 | 37.47131 | 126.45785 | 36 ft | 0 kts | 146° |
| 2026-05-04 06:11 | 37.47205 | 126.45734 | 36 ft | 2 kts | 188° |
| 2026-05-04 06:11 | 37.47219 | 126.45740 | 36 ft | 2 kts | 210° |
| 2026-05-04 06:13 | 37.47234 | 126.45757 | 35 ft | 0 kts | 236° |
| 2026-05-04 06:14 | 37.47008 | 126.45557 | 36 ft | 14 kts | 145° |
| 2026-05-04 06:14 | 37.46903 | 126.45650 | 35 ft | 22 kts | 145° |
| 2026-05-04 06:15 | 37.46760 | 126.45776 | 36 ft | 26 kts | 145° |
| 2026-05-04 06:15 | 37.46603 | 126.45916 | 36 ft | 28 kts | 145° |
| 2026-05-04 06:15 | 37.46437 | 126.46064 | 36 ft | 29 kts | 145° |
| 2026-05-04 06:15 | 37.46272 | 126.46210 | 36 ft | 28 kts | 144° |
| 2026-05-04 06:16 | 37.46110 | 126.46355 | 36 ft | 28 kts | 144° |
| 2026-05-04 06:16 | 37.45950 | 126.46496 | 36 ft | 27 kts | 145° |
| 2026-05-04 06:16 | 37.45828 | 126.46605 | 36 ft | 17 kts | 144° |
| 2026-05-04 06:16 | 37.45757 | 126.46631 | 36 ft | 9 kts | 209° |
| 2026-05-04 06:17 | 37.45715 | 126.46568 | 36 ft | 9 kts | 235° |
| 2026-05-04 06:17 | 37.45679 | 126.46505 | 35 ft | 8 kts | 235° |
| 2026-05-04 06:17 | 37.45672 | 126.46439 | 35 ft | 11 kts | 312° |
| 2026-05-04 06:17 | 37.45874 | 126.46256 | 36 ft | 71 kts | 325° |
| 2026-05-04 06:18 | 37.46491 | 126.45709 | 36 ft | 141 kts | 324° |
| 2026-05-04 06:18 | 37.47416 | 126.44909 | 293 ft | 173 kts | 323° |
| 2026-05-04 06:18 | 37.48394 | 126.44035 | 1193 ft | 175 kts | 321° |
| 2026-05-04 06:20 | 37.56844 | 126.36990 | 5438 ft | 231 kts | 342° |
| 2026-05-04 06:20 | 37.58454 | 126.36415 | 5829 ft | 245 kts | 343° |
| 2026-05-04 06:21 | 37.64610 | 126.37065 | 9207 ft | 258 kts | 43° |
| 2026-05-04 06:21 | 37.65563 | 126.39112 | 9616 ft | 284 kts | 65° |
| 2026-05-04 06:22 | 37.66180 | 126.41506 | 10282 ft | 292 kts | 68° |
| 2026-05-04 06:22 | 37.66537 | 126.44122 | 10662 ft | 317 kts | 83° |
| 2026-05-04 06:25 | 37.43551 | 126.79942 | 20618 ft | 468 kts | 118° |
| 2026-05-04 06:25 | 37.42185 | 126.83644 | 21432 ft | 474 kts | 108° |
| 2026-05-04 06:26 | 37.41296 | 126.87599 | 22220 ft | 478 kts | 98° |
| 2026-05-04 06:26 | 37.40918 | 126.91748 | 23000 ft | 481 kts | 88° |
| 2026-05-04 06:26 | 37.41063 | 126.95936 | 23762 ft | 483 kts | 79° |
| 2026-05-04 06:26 | 37.41730 | 127.00114 | 24478 ft | 486 kts | 71° |
| 2026-05-04 06:27 | 37.45090 | 127.16977 | 27129 ft | 516 kts | 73° |
| 2026-05-04 06:28 | 37.45877 | 127.21393 | 27841 ft | 522 kts | 73° |
| 2026-05-04 06:28 | 37.46651 | 127.25850 | 28511 ft | 529 kts | 74° |
| 2026-05-04 06:28 | 37.47430 | 127.30427 | 29164 ft | 536 kts | 74° |
| 2026-05-04 06:28 | 37.48193 | 127.34982 | 29966 ft | 540 kts | 74° |
| 2026-05-04 06:29 | 37.48959 | 127.39610 | 30871 ft | 538 kts | 75° |
| 2026-05-04 06:29 | 37.49706 | 127.44171 | 31677 ft | 537 kts | 75° |
| 2026-05-04 06:29 | 37.50448 | 127.48732 | 32412 ft | 536 kts | 75° |
| 2026-05-04 06:29 | 37.51195 | 127.53342 | 33052 ft | 537 kts | 76° |
| 2026-05-04 06:30 | 37.51933 | 127.57925 | 33676 ft | 538 kts | 76° |
| 2026-05-04 06:30 | 37.52674 | 127.62550 | 34300 ft | 538 kts | 76° |
| 2026-05-04 06:30 | 37.53413 | 127.67180 | 34836 ft | 539 kts | 77° |
| 2026-05-04 06:30 | 37.54153 | 127.71822 | 35217 ft | 544 kts | 77° |
| 2026-05-04 06:31 | 37.54902 | 127.76539 | 35613 ft | 546 kts | 77° |
| 2026-05-04 06:31 | 37.55654 | 127.81293 | 36174 ft | 546 kts | 77° |
| 2026-05-04 06:31 | 37.56392 | 127.85974 | 36734 ft | 547 kts | 77° |
| 2026-05-04 06:31 | 37.57133 | 127.90681 | 36915 ft | 552 kts | 77° |
| 2026-05-04 06:33 | 37.62993 | 128.28441 | 36928 ft | 551 kts | 77° |
| 2026-05-04 06:34 | 37.64445 | 128.37932 | 36926 ft | 549 kts | 77° |
| 2026-05-04 06:34 | 37.65894 | 128.47452 | 36922 ft | 554 kts | 77° |
| 2026-05-04 06:36 | 37.65299 | 128.85121 | 36890 ft | 544 kts | 123° |
| 2026-05-04 06:37 | 37.61483 | 128.93300 | 36892 ft | 542 kts | 126° |
| 2026-05-04 06:37 | 37.57588 | 129.01431 | 36896 ft | 542 kts | 127° |
| 2026-05-04 06:38 | 37.53690 | 129.09538 | 36898 ft | 544 kts | 127° |
| 2026-05-04 06:40 | 37.38027 | 129.41901 | 36902 ft | 541 kts | 127° |
| 2026-05-04 06:40 | 37.34094 | 129.49980 | 36908 ft | 542 kts | 127° |
| 2026-05-04 06:41 | 37.30164 | 129.58031 | 36914 ft | 544 kts | 127° |
| 2026-05-04 06:41 | 37.26197 | 129.66144 | 36918 ft | 541 kts | 128° |
| 2026-05-04 06:42 | 37.22276 | 129.74136 | 36902 ft | 542 kts | 128° |
| 2026-05-04 06:44 | 37.06432 | 130.06245 | 36894 ft | 541 kts | 129° |
| 2026-05-04 06:44 | 37.02458 | 130.14246 | 36915 ft | 545 kts | 129° |
| 2026-05-04 06:45 | 36.98473 | 130.22260 | 36924 ft | 542 kts | 129° |
| 2026-05-04 06:45 | 36.94517 | 130.30188 | 36926 ft | 544 kts | 129° |
| 2026-05-04 06:46 | 36.90521 | 130.38184 | 36926 ft | 541 kts | 130° |
| 2026-05-04 06:46 | 36.86523 | 130.46156 | 36939 ft | 545 kts | 130° |
| 2026-05-04 06:48 | 36.70464 | 130.78014 | 36937 ft | 542 kts | 131° |
| 2026-05-04 06:50 | 36.54276 | 131.09828 | 36952 ft | 546 kts | 131° |
| 2026-05-04 06:51 | 36.50199 | 131.17798 | 36945 ft | 545 kts | 132° |
| 2026-05-04 06:51 | 36.46146 | 131.25699 | 36995 ft | 544 kts | 132° |
| 2026-05-04 06:52 | 36.42078 | 131.33615 | 36977 ft | 540 kts | 133° |
| 2026-05-04 06:52 | 36.38559 | 131.42004 | 36963 ft | 562 kts | 117° |
| 2026-05-04 06:53 | 36.36887 | 131.51494 | 36949 ft | 576 kts | 99° |
| 2026-05-04 06:53 | 36.36592 | 131.61500 | 36964 ft | 582 kts | 95° |
| 2026-05-04 06:54 | 36.36346 | 131.71515 | 36940 ft | 581 kts | 97° |
| 2026-05-04 06:54 | 36.36066 | 131.81483 | 36966 ft | 578 kts | 96° |
| 2026-05-04 06:55 | 36.35759 | 131.91417 | 36926 ft | 582 kts | 97° |
| 2026-05-04 06:55 | 36.35435 | 132.01340 | 36940 ft | 581 kts | 97° |
| 2026-05-04 06:57 | 36.34014 | 132.41203 | 36956 ft | 582 kts | 98° |
| 2026-05-04 06:58 | 36.33635 | 132.51186 | 36865 ft | 581 kts | 98° |
| 2026-05-04 06:58 | 36.33442 | 132.56183 | 36991 ft | 578 kts | 97° |
| 2026-05-04 06:58 | 36.33248 | 132.61142 | 36969 ft | 579 kts | 98° |
| 2026-05-04 06:59 | 36.32852 | 132.71092 | 36936 ft | 579 kts | 98° |
| 2026-05-04 06:59 | 36.32443 | 132.81142 | 36931 ft | 583 kts | 98° |
| 2026-05-04 07:01 | 36.30738 | 133.21048 | 36909 ft | 581 kts | 99° |
| 2026-05-04 07:02 | 36.30295 | 133.30949 | 36951 ft | 580 kts | 99° |
| 2026-05-04 07:02 | 36.29836 | 133.40988 | 36942 ft | 582 kts | 100° |
| 2026-05-04 07:03 | 36.29609 | 133.45909 | 36835 ft | 579 kts | 99° |
| 2026-05-04 07:03 | 36.29372 | 133.50944 | 36931 ft | 586 kts | 101° |
| 2026-05-04 07:03 | 36.28900 | 133.60927 | 36942 ft | 583 kts | 101° |
| 2026-05-04 07:04 | 36.28421 | 133.70918 | 36936 ft | 580 kts | 102° |
| 2026-05-04 07:04 | 36.27928 | 133.80922 | 36888 ft | 584 kts | 102° |
| 2026-05-04 07:05 | 36.27428 | 133.90956 | 36916 ft | 583 kts | 101° |
| 2026-05-04 07:05 | 36.26921 | 134.00932 | 36894 ft | 583 kts | 102° |
| 2026-05-04 07:06 | 36.26139 | 134.16014 | 36884 ft | 585 kts | 101° |
| 2026-05-04 07:07 | 36.25610 | 134.26009 | 36914 ft | 586 kts | 101° |
| 2026-05-04 07:09 | 36.23405 | 134.66113 | 36899 ft | 586 kts | 103° |
| 2026-05-04 07:09 | 36.22829 | 134.76169 | 36876 ft | 584 kts | 103° |
| 2026-05-04 07:10 | 36.22246 | 134.86185 | 36869 ft | 587 kts | 103° |
| 2026-05-04 07:12 | 36.18330 | 135.25548 | 36877 ft | 561 kts | 126° |
| 2026-05-04 07:12 | 36.14856 | 135.34010 | 36859 ft | 545 kts | 131° |
| 2026-05-04 07:13 | 36.11315 | 135.42140 | 36658 ft | 534 kts | 133° |
| 2026-05-04 07:13 | 36.09540 | 135.46182 | 36343 ft | 533 kts | 132° |
| 2026-05-04 07:13 | 36.07780 | 135.50176 | 35957 ft | 533 kts | 132° |
| 2026-05-04 07:14 | 36.00720 | 135.66139 | 34369 ft | 531 kts | 133° |
| 2026-05-04 07:14 | 35.98922 | 135.70175 | 33316 ft | 536 kts | 133° |
| 2026-05-04 07:15 | 35.97139 | 135.74181 | 32444 ft | 538 kts | 133° |
| 2026-05-04 07:15 | 35.95351 | 135.78192 | 31530 ft | 540 kts | 133° |
| 2026-05-04 07:15 | 35.93538 | 135.82259 | 30614 ft | 542 kts | 133° |
| 2026-05-04 07:15 | 35.91741 | 135.86291 | 30050 ft | 536 kts | 133° |
| 2026-05-04 07:16 | 35.89943 | 135.90329 | 29538 ft | 529 kts | 132° |
| 2026-05-04 07:16 | 35.88185 | 135.94264 | 29000 ft | 524 kts | 133° |
| 2026-05-04 07:16 | 35.86443 | 135.98157 | 28436 ft | 520 kts | 132° |
| 2026-05-04 07:16 | 35.84693 | 136.02057 | 27840 ft | 518 kts | 132° |
| 2026-05-04 07:17 | 35.82963 | 136.05908 | 27239 ft | 515 kts | 132° |
| 2026-05-04 07:17 | 35.81246 | 136.09724 | 26624 ft | 513 kts | 131° |
| 2026-05-04 07:17 | 35.79515 | 136.13538 | 26012 ft | 507 kts | 134° |
| 2026-05-04 07:17 | 35.77503 | 136.17081 | 25387 ft | 488 kts | 143° |
| 2026-05-04 07:18 | 35.75227 | 136.20035 | 24788 ft | 467 kts | 152° |
| 2026-05-04 07:18 | 35.72723 | 136.22438 | 24211 ft | 446 kts | 161° |
| 2026-05-04 07:18 | 35.70097 | 136.24329 | 23673 ft | 431 kts | 166° |
| 2026-05-04 07:18 | 35.67488 | 136.26044 | 23150 ft | 427 kts | 167° |
| 2026-05-04 07:19 | 35.64851 | 136.27802 | 22611 ft | 427 kts | 165° |
| 2026-05-04 07:19 | 35.62282 | 136.29578 | 22078 ft | 425 kts | 165° |
| 2026-05-04 07:19 | 35.59731 | 136.31331 | 21528 ft | 423 kts | 164° |
| 2026-05-04 07:19 | 35.57174 | 136.33078 | 20955 ft | 421 kts | 164° |
| 2026-05-04 07:20 | 35.54599 | 136.34827 | 20398 ft | 419 kts | 164° |
| 2026-05-04 07:20 | 35.52049 | 136.36551 | 19836 ft | 417 kts | 164° |
| 2026-05-04 07:20 | 35.49532 | 136.38249 | 19263 ft | 415 kts | 164° |
| 2026-05-04 07:20 | 35.46994 | 136.39955 | 18712 ft | 413 kts | 163° |
| 2026-05-04 07:22 | 35.29215 | 136.48955 | 14787 ft | 370 kts | 184° |
| 2026-05-04 07:22 | 35.26613 | 136.49242 | 14251 ft | 367 kts | 184° |
| 2026-05-04 07:23 | 35.24064 | 136.49513 | 13730 ft | 364 kts | 183° |
| 2026-05-04 07:23 | 35.21547 | 136.49779 | 13199 ft | 362 kts | 183° |
| 2026-05-04 07:23 | 35.19033 | 136.50041 | 12745 ft | 357 kts | 183° |
| 2026-05-04 07:23 | 35.16543 | 136.50299 | 12310 ft | 352 kts | 183° |
| 2026-05-04 07:24 | 35.14090 | 136.50549 | 11813 ft | 350 kts | 182° |
| 2026-05-04 07:24 | 35.11647 | 136.50800 | 11299 ft | 348 kts | 182° |
| 2026-05-04 07:24 | 35.09186 | 136.51050 | 10821 ft | 346 kts | 181° |
| 2026-05-04 07:24 | 35.06826 | 136.51292 | 10678 ft | 332 kts | 182° |
| 2026-05-04 07:25 | 35.04576 | 136.51526 | 10590 ft | 319 kts | 182° |
| 2026-05-04 07:26 | 34.90584 | 136.52939 | 9150 ft | 274 kts | 182° |
| 2026-05-04 07:27 | 34.88661 | 136.53134 | 8808 ft | 274 kts | 182° |
| 2026-05-04 07:27 | 34.86759 | 136.53328 | 8480 ft | 273 kts | 182° |
| 2026-05-04 07:27 | 34.84864 | 136.53520 | 8161 ft | 273 kts | 182° |
| 2026-05-04 07:27 | 34.82967 | 136.53713 | 7831 ft | 273 kts | 182° |
| 2026-05-04 07:28 | 34.81092 | 136.53902 | 7505 ft | 273 kts | 181° |
| 2026-05-04 07:28 | 34.79173 | 136.54097 | 7181 ft | 273 kts | 181° |
| 2026-05-04 07:28 | 34.77290 | 136.54286 | 6865 ft | 273 kts | 181° |
| 2026-05-04 07:28 | 34.75382 | 136.54480 | 6541 ft | 273 kts | 181° |
| 2026-05-04 07:29 | 34.73476 | 136.54750 | 6201 ft | 277 kts | 168° |
| 2026-05-04 07:29 | 34.71760 | 136.55844 | 5891 ft | 283 kts | 139° |
| 2026-05-04 07:29 | 34.70462 | 136.57658 | 5861 ft | 291 kts | 127° |
| 2026-05-04 07:29 | 34.69268 | 136.59650 | 5839 ft | 292 kts | 126° |
| 2026-05-04 07:30 | 34.68080 | 136.61661 | 5793 ft | 292 kts | 126° |
| 2026-05-04 07:30 | 34.66898 | 136.63652 | 5727 ft | 291 kts | 126° |
| 2026-05-04 07:30 | 34.65718 | 136.65631 | 5658 ft | 289 kts | 127° |
| 2026-05-04 07:30 | 34.64524 | 136.67629 | 5588 ft | 289 kts | 127° |
| 2026-05-04 07:31 | 34.63351 | 136.69589 | 5521 ft | 289 kts | 127° |
| 2026-05-04 07:31 | 34.62176 | 136.71553 | 5454 ft | 288 kts | 127° |
| 2026-05-04 07:33 | 34.60212 | 136.85440 | 4876 ft | 227 kts | 21° |
| 2026-05-04 07:33 | 34.61685 | 136.85919 | 4646 ft | 215 kts | 356° |
| 2026-05-04 07:33 | 34.63174 | 136.85860 | 4372 ft | 211 kts | 348° |
| 2026-05-04 07:33 | 34.64642 | 136.85603 | 4075 ft | 209 kts | 345° |
| 2026-05-04 07:34 | 34.66098 | 136.85275 | 3781 ft | 208 kts | 344° |
| 2026-05-04 07:34 | 34.67535 | 136.84927 | 3486 ft | 208 kts | 344° |
| 2026-05-04 07:34 | 34.68992 | 136.84572 | 3186 ft | 207 kts | 345° |
| 2026-05-04 07:34 | 34.70427 | 136.84225 | 2893 ft | 207 kts | 344° |
| 2026-05-04 07:35 | 34.71858 | 136.83881 | 2590 ft | 201 kts | 345° |
| 2026-05-04 07:35 | 34.73188 | 136.83563 | 2314 ft | 184 kts | 344° |
| 2026-05-04 07:35 | 34.74415 | 136.83269 | 2063 ft | 172 kts | 344° |
| 2026-05-04 07:35 | 34.75568 | 136.82993 | 1830 ft | 157 kts | 344° |
| 2026-05-04 07:36 | 34.76618 | 136.82742 | 1620 ft | 143 kts | 343° |
| 2026-05-04 07:36 | 34.77568 | 136.82513 | 1414 ft | 135 kts | 343° |
| 2026-05-04 07:38 | 34.84142 | 136.80949 | 93 ft | 136 kts | 345° |
| 2026-05-04 07:38 | 34.85047 | 136.80730 | 15 ft | 117 kts | 348° |
| 2026-05-04 07:38 | 34.85726 | 136.80565 | 15 ft | 81 kts | 348° |
| 2026-05-04 07:38 | 34.86094 | 136.80493 | 15 ft | 36 kts | 3° |
| 2026-05-04 07:39 | 34.86301 | 136.80556 | 15 ft | 26 kts | 20° |
| 2026-05-04 07:39 | 34.86455 | 136.80620 | 15 ft | 15 kts | 15° |
| 2026-05-04 07:39 | 34.86556 | 136.80614 | 15 ft | 14 kts | 348° |
| 2026-05-04 07:39 | 34.86649 | 136.80591 | 15 ft | 13 kts | 348° |
| 2026-05-04 07:40 | 34.86731 | 136.80571 | 15 ft | 7 kts | 348° |
| 2026-05-04 07:40 | 34.86785 | 136.80557 | 15 ft | 7 kts | 351° |
| 2026-05-04 07:40 | 34.86814 | 136.80586 | 15 ft | 5 kts | 76° |
| 2026-05-04 07:40 | 34.86823 | 136.80637 | 15 ft | 4 kts | 78° |
| 2026-05-04 07:41 | 34.86829 | 136.80678 | 15 ft | 5 kts | 78° |
| 2026-05-04 07:41 | 34.86833 | 136.80696 | 15 ft | 0 kts | 78° |
| 2026-05-04 07:41 | 34.86833 | 136.80698 | 15 ft | 0 kts | 78° |
| 2026-05-04 07:41 | 34.86838 | 136.80725 | 15 ft | 5 kts | 72° |
| 2026-05-04 07:42 | 34.86867 | 136.80745 | 15 ft | 5 kts | 6° |
| 2026-05-04 07:42 | 34.86902 | 136.80739 | 15 ft | 5 kts | 348° |
| 2026-05-04 07:42 | 34.86940 | 136.80730 | 15 ft | 5 kts | 348° |
| 2026-05-04 07:42 | 34.86978 | 136.80721 | 15 ft | 4 kts | 359° |
| 2026-05-04 07:43 | 34.86997 | 136.80740 | 15 ft | 3 kts | 72° |
| 2026-05-04 07:43 | 34.87002 | 136.80775 | 15 ft | 5 kts | 79° |
| 2026-05-04 07:43 | 34.87007 | 136.80809 | 15 ft | 0 kts | 78° |